Portada
METAR-TAF:

METAR-TAF

Aeroports :

Doylestown Airport

Doylestown, Pennsilvània, Estats Units d'Amèrica

latitud: 40-19-48N, longitud: 075-07-21W, altitud: 120 m

Observació

L'informe es va fer fa 2 hores i 11 minuts, a les 18:54 UTC
Vent 9 kt del Oest/Sud-Oest amb ràfegues de 14 kt
Temperatura 18°C
Humitat 56%
Pressió 1015 hPa
Visibilitat: 16.1 km
Cel clar

METAR: KDYL 261854Z AUTO 25009G14KT 10SM CLR 18/09 A2996 RMK AO2 SLP143 T01830089

Hora: 16:05 (21:05 UTC)


TAF: manca

Observacions i pronòstics meteorològics de més de 4000 aeroports (METAR i TAF).

Les estacions disponibles són els punts grocs i vermells al mapa.

Posi el ratolí al punt desitjat per veure el nom de l'estació.

Feu clic per veure les observacions i els pronòstics meteorològics.

Per canviar el mapa: feu clic els botons verds amb una creu de color negre per apropar; al botó verd amb un guió per allunyar la imatge; o en les fletxes verdes per a mapes adjacents.


METAR-TAF: